Time;durP1;ratioP1;P1;durP2;ratioP2;P2;SDS_P1;SDS_P2;PMS_P1;PMS_P2;Temp;Humidity;BMP_temperature;BMP_pressure;BME280_temperature;BME280_humidity;BME280_pressure;Samples;Min_cycle;Max_cycle;Signal;HPM_P1;HPM_P2
2022/08/11 00:01:49;;;;;;;1.23;1.23;;;30.10;38.20;;;;;;5055185;28;20529;-80
2022/08/11 00:04:20;;;;;;;1.30;1.30;;;30.00;38.20;;;;;;5057831;28;20837;-79
2022/08/11 00:06:48;;;;;;;1.23;1.23;;;30.00;38.30;;;;;;5057755;28;20428;-80
2022/08/11 00:09:17;;;;;;;1.27;1.17;;;29.90;38.30;;;;;;5057279;28;20481;-81
2022/08/11 00:11:46;;;;;;;1.40;1.40;;;29.90;38.30;;;;;;5058955;28;20485;-81
2022/08/11 00:14:16;;;;;;;1.67;1.20;;;29.90;38.40;;;;;;5062291;28;20452;-81
2022/08/11 00:16:45;;;;;;;1.40;1.40;;;29.80;38.20;;;;;;5058635;28;20446;-82
2022/08/11 00:19:13;;;;;;;1.30;1.30;;;29.80;38.20;;;;;;5058873;28;20474;-82
2022/08/11 00:21:42;;;;;;;1.17;1.17;;;29.80;38.40;;;;;;5058552;28;20449;-83
2022/08/11 00:24:32;;;;;;;1.40;1.40;;;29.80;38.40;;;;;;5057842;28;20451;-82
2022/08/11 00:27:20;;;;;;;1.73;1.20;;;29.80;38.50;;;;;;5057066;28;20411;-80
2022/08/11 00:29:53;;;;;;;1.57;1.47;;;29.70;38.50;;;;;;5057125;28;20447;-81
2022/08/11 00:32:21;;;;;;;1.43;1.33;;;29.70;38.50;;;;;;5056362;28;20443;-80
2022/08/11 00:34:48;;;;;;;1.23;1.23;;;29.60;38.40;;;;;;5056676;28;20425;-78
2022/08/11 00:37:19;;;;;;;1.30;1.20;;;29.60;38.50;;;;;;5056422;28;20451;-79
2022/08/11 00:39:50;;;;;;;1.80;1.70;;;29.60;38.60;;;;;;5056214;28;20452;-81
2022/08/11 00:42:24;;;;;;;1.63;1.53;;;29.50;38.60;;;;;;5057327;28;20492;-82
2022/08/11 00:45:00;;;;;;;1.40;1.40;;;29.50;38.50;;;;;;5060668;28;20474;-83
2022/08/11 00:47:37;;;;;;;1.33;1.30;;;29.40;38.60;;;;;;5061476;28;20453;-83
2022/08/11 00:50:11;;;;;;;1.60;1.60;;;29.50;38.70;;;;;;5061673;28;20427;-82
2022/08/11 00:53:03;;;;;;;1.40;1.40;;;29.40;38.70;;;;;;5061697;28;20958;-83
2022/08/11 00:56:12;;;;;;;1.60;1.50;;;29.40;38.60;;;;;;5061584;28;20481;-83
2022/08/11 00:59:25;;;;;;;1.40;1.40;;;29.30;38.70;;;;;;5061724;28;20452;-83
2022/08/11 01:02:22;;;;;;;1.40;1.40;;;29.30;38.80;;;;;;5030546;28;20421;-83
2022/08/11 01:05:36;;;;;;;1.40;1.30;;;29.20;38.80;;;;;;5062045;28;20484;-83
2022/08/11 01:08:55;;;;;;;1.60;1.57;;;29.20;38.80;;;;;;5061985;28;20446;-83
2022/08/11 01:11:34;;;;;;;1.40;1.40;;;29.10;38.80;;;;;;5002995;28;20409;-83
2022/08/11 01:14:37;;;;;;;1.63;1.53;;;29.10;39.00;;;;;;5060817;28;20464;-82
2022/08/11 01:17:39;;;;;;;1.97;1.87;;;29.10;39.00;;;;;;5062049;28;20412;-81
2022/08/11 01:20:25;;;;;;;1.70;1.60;;;29.00;39.00;;;;;;5066211;28;20458;-84
2022/08/11 01:23:47;;;;;;;1.20;1.20;;;29.00;39.20;;;;;;5059885;28;20405;-84
2022/08/11 01:26:44;;;;;;;1.60;1.50;;;29.00;39.10;;;;;;5060268;28;20508;-83
2022/08/11 01:29:34;;;;;;;2.10;1.43;;;28.90;39.10;;;;;;5058170;28;20429;-82
2022/08/11 01:32:39;;;;;;;1.40;1.30;;;28.90;39.10;;;;;;5058732;28;20418;-82
2022/08/11 01:35:40;;;;;;;1.40;1.40;;;28.90;39.10;;;;;;4977766;28;20489;-83
2022/08/11 01:38:31;;;;;;;1.63;1.53;;;28.90;39.20;;;;;;5057919;28;20454;-82
2022/08/11 01:41:15;;;;;;;1.60;1.50;;;28.80;39.10;;;;;;5058246;28;20419;-81
2022/08/11 01:47:49;;;;;;;1.47;1.30;;;28.80;39.30;;;;;;4997207;28;20468;-82
2022/08/11 01:50:32;;;;;;;1.40;1.30;;;28.70;39.30;;;;;;5058050;28;20420;-82
2022/08/11 01:53:12;;;;;;;1.40;1.33;;;28.70;39.40;;;;;;5058304;28;20504;-82
2022/08/11 01:55:53;;;;;;;1.40;1.30;;;28.70;39.40;;;;;;5057719;28;20511;-83
2022/08/11 01:58:26;;;;;;;1.53;1.47;;;28.60;39.40;;;;;;5057756;28;20428;-81
2022/08/11 02:01:15;;;;;;;1.60;1.50;;;28.60;39.40;;;;;;5057776;28;20417;-82
2022/08/11 02:03:46;;;;;;;1.37;1.33;;;28.60;39.40;;;;;;5057935;28;20440;-82
2022/08/11 02:09:04;;;;;;;1.30;1.30;;;28.50;39.40;;;;;;5059532;28;20446;-82
2022/08/11 02:11:35;;;;;;;1.50;1.40;;;28.50;39.60;;;;;;5063156;28;20419;-83
2022/08/11 02:14:21;;;;;;;1.63;1.53;;;28.50;39.60;;;;;;5063717;28;20445;-83
2022/08/11 02:17:05;;;;;;;1.77;1.60;;;28.40;39.40;;;;;;5063996;28;20462;-83
2022/08/11 02:25:20;;;;;;;1.30;1.30;;;28.30;39.60;;;;;;5061695;28;20554;-81
2022/08/11 02:27:52;;;;;;;1.23;1.20;;;28.30;39.60;;;;;;5064021;28;20512;-82
2022/08/11 02:30:23;;;;;;;1.30;1.30;;;28.30;39.60;;;;;;5063849;28;20452;-81
2022/08/11 02:35:44;;;;;;;1.70;1.60;;;28.20;39.70;;;;;;5063341;28;20510;-79
2022/08/11 02:38:17;;;;;;;1.53;1.43;;;28.20;39.60;;;;;;5064034;28;20440;-82
2022/08/11 02:40:48;;;;;;;1.40;1.27;;;28.20;39.80;;;;;;5063697;28;20421;-83
2022/08/11 02:43:27;;;;;;;1.20;1.20;;;28.20;39.70;;;;;;5063573;28;20466;-81
2022/08/11 02:46:01;;;;;;;1.10;1.10;;;28.10;39.70;;;;;;5063393;28;20483;-83
2022/08/11 02:51:29;;;;;;;1.50;1.40;;;28.10;39.70;;;;;;5061313;28;20469;-80
2022/08/11 02:54:10;;;;;;;1.30;1.30;;;28.10;39.70;;;;;;5063330;28;20512;-81
2022/08/11 02:56:44;;;;;;;1.67;1.60;;;28.00;39.70;;;;;;5064105;28;20417;-83
2022/08/11 03:02:14;;;;;;;1.30;1.30;;;28.00;39.70;;;;;;5063991;28;20444;-82
2022/08/11 03:05:00;;;;;;;1.73;1.27;;;27.90;39.70;;;;;;5063133;28;20469;-83
2022/08/11 03:07:32;;;;;;;1.40;1.30;;;27.90;39.70;;;;;;5063961;28;20980;-83
2022/08/11 03:10:03;;;;;;;1.60;1.50;;;27.90;39.80;;;;;;5065434;28;20449;-82
2022/08/11 03:18:15;;;;;;;1.53;1.43;;;27.80;39.80;;;;;;5063930;28;20409;-82
2022/08/11 03:20:45;;;;;;;2.13;1.40;;;27.80;39.80;;;;;;5063801;28;20441;-82
2022/08/11 03:23:18;;;;;;;1.50;1.40;;;27.80;39.90;;;;;;5061980;28;20512;-82
2022/08/11 03:25:51;;;;;;;1.20;1.20;;;27.80;39.80;;;;;;5062885;28;20453;-83
2022/08/11 03:28:28;;;;;;;1.77;1.67;;;27.80;39.90;;;;;;5063231;28;20513;-81
2022/08/11 03:31:07;;;;;;;1.40;1.30;;;27.70;39.90;;;;;;5064112;28;20441;-84
2022/08/11 03:37:05;;;;;;;1.37;1.37;;;27.60;39.80;;;;;;5064048;28;20446;-83
2022/08/11 03:39:48;;;;;;;1.63;1.53;;;27.60;39.90;;;;;;5064054;28;20425;-81
2022/08/11 03:42:26;;;;;;;1.53;1.43;;;27.60;40.00;;;;;;5063357;28;20492;-83
2022/08/11 03:45:07;;;;;;;1.80;1.80;;;27.50;39.90;;;;;;5064187;28;20448;-83
2022/08/11 03:47:45;;;;;;;1.37;1.37;;;27.50;39.90;;;;;;5063801;28;20476;-83
2022/08/11 03:50:35;;;;;;;1.60;1.50;;;27.50;39.90;;;;;;5063415;28;20446;-82
2022/08/11 03:53:10;;;;;;;1.30;1.30;;;27.50;40.00;;;;;;5063850;28;20456;-82
2022/08/11 03:55:58;;;;;;;1.40;1.40;;;27.40;39.90;;;;;;5062836;28;20467;-83
2022/08/11 03:58:42;;;;;;;1.57;1.47;;;27.40;39.80;;;;;;5063225;28;20409;-82
2022/08/11 04:01:38;;;;;;;1.80;1.70;;;27.40;39.90;;;;;;5064617;28;20425;-82
2022/08/11 04:04:31;;;;;;;1.57;1.50;;;27.40;39.90;;;;;;5063205;28;20513;-83
2022/08/11 04:07:42;;;;;;;1.40;1.40;;;27.40;39.90;;;;;;5061980;28;20540;-82
2022/08/11 04:10:28;;;;;;;1.67;1.57;;;27.30;39.90;;;;;;5027276;28;20462;-82
2022/08/11 04:13:44;;;;;;;1.80;1.57;;;27.30;40.00;;;;;;5061268;28;20413;-81
2022/08/11 04:16:29;;;;;;;4.60;1.57;;;27.30;39.90;;;;;;5019936;28;20414;-83
2022/08/11 04:19:27;;;;;;;1.80;1.80;;;27.30;40.00;;;;;;5061976;28;20499;-82
2022/08/11 04:22:28;;;;;;;1.80;1.70;;;27.20;40.00;;;;;;5063460;28;20440;-82
2022/08/11 04:25:10;;;;;;;4.87;1.53;;;27.20;40.00;;;;;;5061033;28;20527;-83
2022/08/11 04:28:21;;;;;;;1.70;1.60;;;27.20;39.90;;;;;;5060386;28;20483;-82
2022/08/11 04:31:07;;;;;;;1.60;1.60;;;27.10;39.80;;;;;;5060643;28;20426;-83
2022/08/11 04:33:59;;;;;;;1.60;1.50;;;27.10;40.00;;;;;;5061417;28;20494;-84
2022/08/11 04:40:18;;;;;;;1.63;1.53;;;27.10;39.90;;;;;;5060734;28;20449;-83
2022/08/11 04:43:29;;;;;;;3.73;1.63;;;27.10;39.90;;;;;;5057961;28;20405;-83
2022/08/11 04:46:25;;;;;;;1.60;1.50;;;27.10;40.00;;;;;;5041284;28;20423;-82
2022/08/11 05:01:42;;;;;;;3.10;1.60;;;26.90;40.10;;;;;;5062091;28;20485;-82
2022/08/11 05:07:26;;;;;;;1.80;1.70;;;27.00;40.00;;;;;;5060366;28;20511;-81
2022/08/11 05:10:10;;;;;;;1.87;1.77;;;27.00;39.90;;;;;;5061855;28;20529;-82
2022/08/11 05:12:45;;;;;;;1.87;1.57;;;27.00;39.80;;;;;;5066463;28;20474;-82
2022/08/11 05:35:12;;;;;;;1.63;1.53;;;26.90;39.80;;;;;;5061085;28;20528;-82
2022/08/11 05:57:56;;;;;;;1.50;1.50;;;27.00;39.50;;;;;;5068929;28;20466;-84
2022/08/11 06:00:24;;;;;;;1.63;1.57;;;27.10;39.50;;;;;;5068725;28;20417;-84
2022/08/11 06:02:54;;;;;;;1.80;1.70;;;27.10;39.40;;;;;;5068531;28;20446;-83
2022/08/11 06:05:22;;;;;;;2.00;1.80;;;27.20;39.20;;;;;;5068862;28;20493;-83
2022/08/11 06:07:53;;;;;;;1.50;1.50;;;27.10;39.10;;;;;;5069383;28;20471;-84
2022/08/11 06:10:26;;;;;;;2.03;1.93;;;27.10;39.20;;;;;;5067548;28;20476;-83
2022/08/11 06:12:55;;;;;;;1.50;1.50;;;27.20;39.10;;;;;;5067216;28;20447;-84
2022/08/11 06:15:23;;;;;;;1.50;1.50;;;27.20;39.10;;;;;;5064403;28;20441;-83
2022/08/11 06:17:53;;;;;;;1.47;1.37;;;27.20;38.90;;;;;;5060439;28;20417;-82
2022/08/11 06:20:21;;;;;;;1.60;1.50;;;27.30;39.10;;;;;;5060187;28;20465;-83
2022/08/11 06:22:56;;;;;;;1.67;1.57;;;27.30;39.00;;;;;;5060438;28;20472;-83
2022/08/11 06:25:25;;;;;;;1.90;1.80;;;27.30;38.90;;;;;;5060175;28;20441;-83
2022/08/11 06:27:55;;;;;;;1.40;1.40;;;27.30;38.80;;;;;;5060449;28;20570;-83
2022/08/11 06:30:33;;;;;;;1.70;1.60;;;27.40;38.90;;;;;;5060310;28;20450;-82
2022/08/11 06:33:03;;;;;;;1.73;1.63;;;27.40;38.80;;;;;;5060155;28;20454;-83
2022/08/11 06:35:36;;;;;;;1.57;1.57;;;27.50;38.80;;;;;;5060033;28;20402;-83
2022/08/11 06:38:06;;;;;;;1.50;1.50;;;27.50;38.80;;;;;;5061247;28;20473;-82
2022/08/11 06:40:41;;;;;;;1.30;1.30;;;27.60;38.70;;;;;;5060515;28;20448;-83
2022/08/11 06:43:15;;;;;;;1.40;1.40;;;27.60;38.70;;;;;;5059919;28;20432;-83
2022/08/11 06:45:50;;;;;;;1.70;1.60;;;27.60;38.60;;;;;;5060521;28;20887;-83
2022/08/11 06:48:21;;;;;;;1.73;1.60;;;27.80;38.70;;;;;;5060091;28;20448;-82
2022/08/11 06:53:35;;;;;;;1.80;1.70;;;27.90;38.60;;;;;;5059555;28;20512;-82
2022/08/11 07:01:43;;;;;;;1.47;1.47;;;28.10;38.50;;;;;;5058828;28;20425;-83
2022/08/11 07:04:17;;;;;;;1.53;1.53;;;28.20;38.40;;;;;;5058820;28;20448;-83
2022/08/11 07:15:40;;;;;;;1.20;1.20;;;28.30;38.10;;;;;;5058973;28;20504;-83
2022/08/11 07:15:41;;;;;;;1.50;1.50;;;28.80;37.50;;;;;;5058943;28;20413;-83
2022/08/11 07:30:16;;;;;;;2.40;1.73;;;29.80;36.30;;;;;;5058894;28;20504;-83
2022/08/11 07:32:48;;;;;;;1.83;1.73;;;30.00;36.40;;;;;;5058213;28;20443;-83
2022/08/11 07:35:17;;;;;;;1.30;1.30;;;30.10;36.00;;;;;;5058375;28;20429;-83
2022/08/11 07:37:48;;;;;;;1.27;1.27;;;30.20;35.80;;;;;;5058271;28;20485;-83
2022/08/11 07:40:28;;;;;;;1.70;1.60;;;30.40;35.80;;;;;;5058250;28;20421;-83
2022/08/11 07:42:56;;;;;;;1.70;1.60;;;30.50;35.80;;;;;;5058008;28;20425;-84
2022/08/11 07:53:41;;;;;;;1.60;1.50;;;31.10;35.70;;;;;;5057786;28;20481;-79
2022/08/11 07:56:29;;;;;;;1.60;1.50;;;31.20;35.60;;;;;;5058017;28;20433;-77
2022/08/11 08:18:57;;;;;;;1.23;1.23;;;32.70;34.90;;;;;;5051419;28;20498;-82
2022/08/11 08:21:25;;;;;;;1.30;1.30;;;32.80;34.80;;;;;;5057629;28;20510;-82
2022/08/11 08:23:55;;;;;;;1.50;1.50;;;33.00;34.80;;;;;;5057405;28;20468;-83
2022/08/11 08:32:03;;;;;;;3.13;1.50;;;33.30;34.80;;;;;;5056876;28;20538;-81
2022/08/11 08:34:31;;;;;;;1.50;1.40;;;33.50;34.70;;;;;;5057496;28;20519;-82
2022/08/11 08:37:00;;;;;;;1.27;1.27;;;33.70;34.70;;;;;;5056831;28;20451;-81
2022/08/11 08:39:33;;;;;;;1.30;1.30;;;33.80;34.80;;;;;;5056934;28;20442;-82
2022/08/11 08:42:04;;;;;;;1.30;1.30;;;34.00;34.80;;;;;;5056947;28;20446;-82
2022/08/11 08:44:33;;;;;;;1.50;1.40;;;34.00;34.70;;;;;;5056269;28;20489;-83
2022/08/11 08:47:07;;;;;;;1.50;1.40;;;34.30;34.60;;;;;;5057001;28;20501;-82
2022/08/11 08:49:40;;;;;;;1.60;1.60;;;34.50;34.60;;;;;;5056497;28;20494;-83
2022/08/11 08:52:13;;;;;;;1.37;1.37;;;34.60;34.50;;;;;;5056623;28;20500;-83
2022/08/11 08:55:00;;;;;;;1.90;1.33;;;34.70;34.50;;;;;;5050009;28;20466;-82
2022/08/11 08:57:29;;;;;;;1.50;1.50;;;34.90;34.40;;;;;;5056637;28;20443;-82
2022/08/11 09:00:07;;;;;;;1.13;1.13;;;34.90;34.40;;;;;;5056522;28;20439;-82
2022/08/11 09:02:41;;;;;;;2.53;1.37;;;35.20;34.40;;;;;;5057216;28;20499;-82
2022/08/11 09:05:09;;;;;;;1.27;1.27;;;35.30;34.30;;;;;;5056204;28;20550;-82
2022/08/11 09:07:37;;;;;;;1.50;1.40;;;35.50;34.20;;;;;;5056968;28;20518;-83
2022/08/11 09:10:08;;;;;;;1.47;1.37;;;35.60;34.20;;;;;;5056029;28;20582;-80
2022/08/11 09:12:39;;;;;;;1.33;1.20;;;35.70;34.20;;;;;;5055865;28;20467;-83
2022/08/11 09:15:10;;;;;;;1.07;0.97;;;35.90;34.10;;;;;;5056030;28;20519;-83
2022/08/11 09:17:39;;;;;;;1.20;1.20;;;36.10;34.00;;;;;;5056340;28;20487;-82
2022/08/11 09:20:09;;;;;;;1.57;1.47;;;36.30;33.90;;;;;;5059256;28;20438;-82
2022/08/11 09:28:37;;;;;;;2.57;1.30;;;36.90;33.60;;;;;;5043476;28;20470;-82
2022/08/11 09:31:06;;;;;;;1.10;1.10;;;37.00;33.40;;;;;;5059734;28;20522;-83
2022/08/11 09:33:35;;;;;;;1.20;1.20;;;37.10;33.30;;;;;;5058848;28;20499;-82
2022/08/11 09:40:27;;;;;;;1.13;1.13;;;37.30;33.30;;;;;;5059485;28;20528;-83
2022/08/11 09:41:38;;;;;;;1.30;1.30;;;37.60;33.00;;;;;;5059137;28;20474;-82
2022/08/11 09:47:21;;;;;;;1.10;1.10;;;38.00;32.80;;;;;;5048873;28;20449;-81
2022/08/11 09:49:51;;;;;;;1.00;0.90;;;38.20;33.40;;;;;;5061013;28;20501;-82
2022/08/11 09:52:19;;;;;;;1.10;1.10;;;38.30;32.60;;;;;;5062105;28;20529;-82
2022/08/11 09:54:48;;;;;;;1.10;1.10;;;38.50;32.40;;;;;;5060667;28;20509;-81
2022/08/11 10:00:08;;;;;;;1.10;1.10;;;38.80;32.20;;;;;;5062816;28;20473;-83
2022/08/11 10:02:42;;;;;;;2.13;1.10;;;39.00;32.10;;;;;;5061564;28;20449;-81
2022/08/11 10:07:56;;;;;;;1.57;0.90;;;39.40;31.90;;;;;;5060764;28;20442;-83
2022/08/11 10:10:24;;;;;;;1.33;1.13;;;39.60;31.80;;;;;;5060353;28;20474;-82
2022/08/11 10:12:56;;;;;;;1.17;1.17;;;39.80;31.60;;;;;;5061533;28;20446;-80
2022/08/11 10:15:33;;;;;;;1.23;1.23;;;40.00;31.40;;;;;;5061249;28;20497;-82
2022/08/11 10:20:51;;;;;;;1.20;1.20;;;40.40;31.10;;;;;;5061342;28;20442;-82
2022/08/11 10:34:51;;;;;;;0.90;0.90;;;41.40;30.20;;;;;;5061330;28;20508;-82
2022/08/11 10:37:24;;;;;;;1.27;1.27;;;41.60;30.00;;;;;;5061585;28;20528;-82
2022/08/11 10:40:14;;;;;;;0.97;0.97;;;41.80;30.00;;;;;;5060909;28;20426;-82
2022/08/11 10:48:17;;;;;;;0.90;0.90;;;42.40;29.50;;;;;;5061807;28;20456;-82
2022/08/11 10:59:03;;;;;;;1.47;1.37;;;43.20;28.80;;;;;;5062900;28;20525;-83
2022/08/11 11:01:32;;;;;;;1.10;1.10;;;43.40;28.80;;;;;;5066142;28;20538;-82
2022/08/11 11:04:09;;;;;;;3.90;1.00;;;43.60;28.70;;;;;;5066936;28;20466;-82
2022/08/11 11:06:43;;;;;;;1.10;1.10;;;43.80;28.60;;;;;;5063268;28;20541;-81
2022/08/11 11:09:14;;;;;;;1.37;1.27;;;43.90;28.40;;;;;;5063698;28;20448;-83
2022/08/11 11:20:21;;;;;;;1.20;1.20;;;44.70;27.90;;;;;;5064129;28;20470;-82
2022/08/11 11:23:05;;;;;;;1.03;1.03;;;45.00;27.80;;;;;;5063320;28;20511;-82
2022/08/11 11:25:38;;;;;;;1.17;1.17;;;46.00;27.20;;;;;;5063503;28;20477;-81
2022/08/11 11:28:16;;;;;;;0.87;0.87;;;47.00;26.30;;;;;;5063330;28;20513;-82
2022/08/11 11:30:48;;;;;;;0.80;0.80;;;48.10;25.40;;;;;;5060593;28;20525;-82
2022/08/11 11:33:19;;;;;;;0.70;0.70;;;49.20;24.60;;;;;;5060050;28;20468;-81
2022/08/11 11:35:55;;;;;;;0.70;0.70;;;50.10;24.00;;;;;;5059900;28;20608;-81
2022/08/11 11:38:23;;;;;;;0.80;0.80;;;50.80;23.60;;;;;;5058752;28;20588;-80
2022/08/11 11:43:33;;;;;;;0.70;0.70;;;52.20;22.70;;;;;;5054955;28;20605;-81
2022/08/11 11:46:01;;;;;;;0.60;0.60;;;52.90;22.20;;;;;;5058603;28;20260;-81
2022/08/11 11:48:28;;;;;;;0.70;0.70;;;53.60;21.70;;;;;;5057287;28;20292;-80
2022/08/11 11:50:58;;;;;;;0.70;0.70;;;54.10;21.50;;;;;;5056852;28;20223;-80
2022/08/11 11:53:26;;;;;;;0.60;0.60;;;54.50;21.10;;;;;;5055678;28;20219;-81
2022/08/11 11:55:53;;;;;;;2.35;0.60;;;54.90;21.00;;;;;;5055453;28;20644;-81
2022/08/11 12:01:16;;;;;;;0.60;0.60;;;55.70;20.60;;;;;;5056055;28;20287;-79
2022/08/11 12:03:44;;;;;;;0.55;0.55;;;55.90;20.40;;;;;;5055511;28;20249;-81
2022/08/11 12:06:14;;;;;;;0.50;0.50;;;56.10;20.40;;;;;;5054624;28;20201;-80
2022/08/11 12:08:42;;;;;;;0.50;0.50;;;56.20;20.30;;;;;;5054198;28;20672;-82
2022/08/11 12:13:58;;;;;;;0.50;0.50;;;56.70;20.00;;;;;;5054006;28;20251;-81
2022/08/11 12:16:26;;;;;;;0.90;0.55;;;57.10;19.70;;;;;;5054549;28;20283;-83
2022/08/11 12:19:05;;;;;;;0.50;0.50;;;57.30;19.60;;;;;;5053972;28;20197;-83
2022/08/11 12:21:35;;;;;;;0.93;0.50;;;57.60;19.50;;;;;;5054296;28;20679;-83
2022/08/11 12:29:47;;;;;;;0.50;0.50;;;58.00;19.10;;;;;;5046937;28;20212;-82
2022/08/11 12:32:23;;;;;;;0.50;0.50;;;58.40;19.00;;;;;;5054414;28;20192;-82
2022/08/11 12:34:51;;;;;;;0.57;0.57;;;58.50;18.90;;;;;;5053236;28;20304;-83
2022/08/11 12:37:23;;;;;;;0.50;0.50;;;58.40;18.60;;;;;;5053471;28;20284;-81
2022/08/11 12:45:51;;;;;;;0.50;0.50;;;58.60;18.50;;;;;;5054269;28;20202;-82
2022/08/11 12:54:34;;;;;;;0.47;0.47;;;58.80;18.30;;;;;;5053897;28;20275;-83
2022/08/11 13:05:36;;;;;;;0.43;0.43;;;59.00;17.90;;;;;;5054110;28;20207;-82
2022/08/11 13:08:12;;;;;;;0.50;0.50;;;58.90;18.10;;;;;;5054037;28;20235;-82
2022/08/11 13:13:27;;;;;;;0.50;0.50;;;58.80;18.20;;;;;;5054286;28;20307;-81
2022/08/11 13:16:15;;;;;;;0.40;0.40;;;58.70;18.20;;;;;;5053884;28;20205;-82
2022/08/11 13:18:43;;;;;;;0.40;0.40;;;58.50;18.10;;;;;;5053397;28;20284;-82
2022/08/11 13:21:10;;;;;;;0.40;0.40;;;58.00;18.40;;;;;;5053401;28;20283;-82
2022/08/11 13:23:46;;;;;;;0.50;0.50;;;56.70;19.70;;;;;;5053826;28;20220;-82
2022/08/11 13:26:32;;;;;;;0.43;0.43;;;55.70;19.80;;;;;;5054416;28;20201;-79
2022/08/11 13:29:20;;;;;;;0.50;0.50;;;54.40;20.60;;;;;;5056215;28;20189;-81
2022/08/11 13:31:49;;;;;;;0.52;0.52;;;53.30;21.40;;;;;;5056878;28;20291;-80
2022/08/11 13:34:17;;;;;;;0.77;0.65;;;52.50;21.70;;;;;;5056658;28;20307;-79
2022/08/11 13:36:47;;;;;;;1.42;0.60;;;51.70;22.20;;;;;;5057960;28;20235;-81
2022/08/11 13:39:15;;;;;;;0.93;0.63;;;51.20;22.40;;;;;;5056675;28;20205;-80
2022/08/11 13:41:46;;;;;;;0.63;0.63;;;50.90;22.70;;;;;;5057290;28;20228;-80
2022/08/11 13:44:16;;;;;;;0.60;0.60;;;50.40;22.90;;;;;;5060637;28;20252;-80
2022/08/11 13:46:51;;;;;;;0.70;0.70;;;50.30;22.90;;;;;;5060937;28;20240;-82
2022/08/11 13:49:19;;;;;;;0.50;0.50;;;50.20;22.80;;;;;;5061287;28;20262;-82
2022/08/11 13:51:48;;;;;;;0.60;0.60;;;50.20;22.80;;;;;;5060984;28;20200;-80
2022/08/11 13:54:17;;;;;;;0.70;0.70;;;50.10;22.70;;;;;;5060700;28;20233;-81
2022/08/11 13:56:48;;;;;;;0.60;0.60;;;50.20;22.70;;;;;;5060857;28;20205;-80
2022/08/11 13:59:19;;;;;;;0.70;0.70;;;50.00;22.60;;;;;;5060284;28;20212;-81
2022/08/11 14:01:52;;;;;;;0.73;0.60;;;50.00;22.70;;;;;;5060116;28;20232;-80
2022/08/11 14:04:41;;;;;;;0.60;0.60;;;50.00;22.70;;;;;;5060354;28;20225;-81
2022/08/11 14:07:10;;;;;;;0.60;0.60;;;49.90;22.70;;;;;;5064076;28;20295;-81
2022/08/11 14:09:40;;;;;;;0.63;0.63;;;49.80;22.80;;;;;;5063195;28;20268;-80
2022/08/11 14:14:59;;;;;;;0.60;0.60;;;49.70;23.40;;;;;;5062975;28;20307;-80
2022/08/11 14:17:34;;;;;;;0.60;0.60;;;49.50;22.90;;;;;;5063246;28;20219;-80
2022/08/11 14:20:17;;;;;;;0.70;0.70;;;49.40;23.00;;;;;;5063126;28;20300;-80
2022/08/11 14:23:03;;;;;;;0.70;0.70;;;49.30;23.10;;;;;;5064315;28;20205;-80
2022/08/11 14:25:31;;;;;;;0.70;0.70;;;49.10;23.10;;;;;;5063166;28;20284;-80
2022/08/11 14:28:20;;;;;;;0.70;0.70;;;49.00;23.20;;;;;;5062712;28;20209;-81
2022/08/11 14:31:01;;;;;;;0.70;0.70;;;48.80;23.30;;;;;;5063946;28;20227;-82
2022/08/11 14:33:29;;;;;;;0.70;0.70;;;48.60;23.40;;;;;;5062392;28;20662;-82
2022/08/11 14:36:17;;;;;;;0.60;0.60;;;48.50;23.50;;;;;;5059844;28;20260;-82
2022/08/11 14:38:45;;;;;;;0.70;0.70;;;48.40;23.70;;;;;;5059628;28;20288;-82
2022/08/11 14:49:31;;;;;;;0.73;0.73;;;47.80;24.10;;;;;;5057470;28;20446;-81
2022/08/11 14:51:59;;;;;;;0.60;0.60;;;47.60;24.20;;;;;;5056387;28;20209;-82
2022/08/11 14:57:16;;;;;;;0.63;0.63;;;47.30;24.40;;;;;;5055711;28;20451;-82
2022/08/11 14:59:47;;;;;;;0.80;0.80;;;47.00;24.40;;;;;;5056567;28;20541;-81
2022/08/11 15:05:01;;;;;;;0.70;0.70;;;46.80;24.70;;;;;;5073137;28;20477;-81
2022/08/11 15:07:29;;;;;;;1.03;0.80;;;46.50;24.70;;;;;;5067874;28;20505;-81
2022/08/11 15:09:57;;;;;;;0.70;0.70;;;46.40;24.90;;;;;;5060872;28;20505;-81
2022/08/11 15:12:41;;;;;;;0.73;0.73;;;46.30;25.00;;;;;;5060975;28;20441;-81
2022/08/11 15:17:58;;;;;;;0.80;0.80;;;45.90;25.20;;;;;;5060680;28;20500;-81
2022/08/11 15:26:00;;;;;;;0.70;0.70;;;45.40;25.60;;;;;;5061556;28;20509;-81
2022/08/11 15:45:46;;;;;;;1.23;0.70;;;44.60;26.30;;;;;;5061213;28;20509;-82
2022/08/11 15:45:49;;;;;;;0.80;0.80;;;44.20;26.70;;;;;;5061584;28;20449;-82
2022/08/11 15:48:26;;;;;;;1.80;1.00;;;44.10;26.70;;;;;;5060688;28;20473;-81
2022/08/11 15:50:56;;;;;;;0.90;0.90;;;43.90;26.90;;;;;;5061428;28;20601;-82
2022/08/11 15:53:27;;;;;;;0.80;0.80;;;43.70;26.90;;;;;;5061925;28;20529;-82
2022/08/11 15:55:55;;;;;;;0.80;0.80;;;43.60;26.90;;;;;;5066763;28;20442;-82
2022/08/11 16:04:14;;;;;;;0.70;0.70;;;43.20;27.20;;;;;;5060532;28;20465;-82
2022/08/11 16:06:48;;;;;;;0.70;0.70;;;43.00;27.30;;;;;;5060780;28;20509;-82
2022/08/11 16:09:20;;;;;;;0.70;0.70;;;42.90;27.40;;;;;;5060502;28;20449;-82
2022/08/11 16:11:48;;;;;;;0.80;0.80;;;42.80;27.60;;;;;;5060640;28;20525;-82
2022/08/11 16:17:03;;;;;;;0.87;0.87;;;42.40;27.60;;;;;;5060448;28;20499;-81
2022/08/11 16:19:33;;;;;;;1.17;1.17;;;42.30;27.80;;;;;;5059856;28;20533;-82
2022/08/11 16:22:02;;;;;;;0.80;0.80;;;42.20;27.90;;;;;;5060233;28;20497;-81
2022/08/11 16:24:30;;;;;;;0.93;0.90;;;42.10;27.90;;;;;;5060030;28;20500;-82
2022/08/11 16:27:18;;;;;;;0.87;0.87;;;42.00;28.00;;;;;;5058810;28;20438;-81
2022/08/11 16:29:51;;;;;;;0.90;0.90;;;41.80;28.10;;;;;;5059296;28;20456;-81
2022/08/11 16:32:21;;;;;;;1.27;0.80;;;41.70;28.10;;;;;;5059798;28;20438;-81
2022/08/11 16:40:28;;;;;;;1.63;0.80;;;41.30;28.40;;;;;;5058537;28;20452;-82
2022/08/11 16:48:36;;;;;;;0.90;0.90;;;41.00;28.60;;;;;;5011003;28;20450;-81
2022/08/11 16:51:07;;;;;;;0.90;0.90;;;40.90;28.70;;;;;;5058989;28;20504;-82
2022/08/11 16:53:38;;;;;;;0.90;0.90;;;40.80;28.70;;;;;;5058435;28;20490;-82
2022/08/11 16:56:28;;;;;;;0.90;0.90;;;40.70;28.70;;;;;;5058203;28;20920;-81
2022/08/11 16:59:13;;;;;;;0.80;0.80;;;40.60;28.90;;;;;;5058498;28;20529;-82
2022/08/11 17:01:45;;;;;;;0.90;0.90;;;40.50;28.90;;;;;;5058756;28;20466;-81
2022/08/11 17:13:20;;;;;;;1.10;1.00;;;40.10;29.30;;;;;;5058077;28;20429;-82
2022/08/11 17:18:40;;;;;;;0.90;0.90;;;39.90;29.20;;;;;;5056461;28;20894;-82
2022/08/11 17:21:11;;;;;;;1.60;1.00;;;39.80;29.30;;;;;;5058673;28;20473;-81
2022/08/11 17:23:46;;;;;;;1.10;1.10;;;39.80;29.40;;;;;;5058342;28;20527;-82
2022/08/11 17:26:19;;;;;;;1.03;0.90;;;39.70;29.50;;;;;;5058207;28;20430;-82
2022/08/11 17:28:50;;;;;;;1.00;1.00;;;39.60;29.50;;;;;;5058370;28;20446;-82
2022/08/11 17:36:52;;;;;;;0.90;0.90;;;39.40;29.70;;;;;;5058513;28;20578;-82
2022/08/11 17:39:21;;;;;;;1.10;1.10;;;39.30;29.80;;;;;;5058508;28;20450;-82
2022/08/11 17:50:06;;;;;;;0.83;0.83;;;39.00;30.00;;;;;;5063221;28;20438;-82
2022/08/11 18:01:05;;;;;;;1.00;1.00;;;38.70;30.10;;;;;;5064375;28;20466;-83
2022/08/11 18:03:38;;;;;;;1.00;1.00;;;38.60;30.20;;;;;;5062954;28;20494;-83
2022/08/11 18:06:08;;;;;;;0.90;0.90;;;38.60;30.40;;;;;;5063807;28;20446;-83
